createdAt,value
2022-09-02T00:01:53.902Z,2
2022-09-02T00:04:24.188Z,2
2022-09-02T00:06:54.653Z,1
2022-09-02T00:09:24.966Z,2
2022-09-02T00:11:55.373Z,3
2022-09-02T00:14:25.741Z,2
2022-09-02T00:16:56.256Z,2
2022-09-02T00:19:26.522Z,1
2022-09-02T00:21:56.974Z,2
2022-09-02T00:24:27.310Z,3
2022-09-02T00:26:57.719Z,3
2022-09-02T00:29:28.097Z,2
2022-09-02T00:31:58.633Z,2
2022-09-02T00:34:28.869Z,3
2022-09-02T00:36:59.318Z,2
2022-09-02T00:39:29.677Z,3
2022-09-02T00:42:00.094Z,2
2022-09-02T00:44:30.458Z,4
2022-09-02T00:47:00.937Z,3
2022-09-02T00:49:31.238Z,3
2022-09-02T00:52:01.691Z,2
2022-09-02T00:54:32.060Z,2
2022-09-02T00:57:02.477Z,3
2022-09-02T00:59:32.861Z,2
2022-09-02T01:02:03.402Z,3
2022-09-02T01:04:33.671Z,2
2022-09-02T01:07:04.114Z,3
2022-09-02T01:09:34.483Z,4
2022-09-02T01:12:04.905Z,2
2022-09-02T01:14:35.300Z,3
2022-09-02T01:17:05.728Z,1
2022-09-02T01:19:36.124Z,3
2022-09-02T01:22:06.578Z,3
2022-09-02T01:24:36.952Z,2
2022-09-02T01:27:07.381Z,3
2022-09-02T01:29:37.761Z,3
2022-09-02T01:32:08.171Z,2
2022-09-02T01:34:38.554Z,2
2022-09-02T01:37:08.991Z,3
2022-09-02T01:39:39.342Z,3
2022-09-02T01:42:09.757Z,3
2022-09-02T01:44:40.132Z,3
2022-09-02T01:47:10.561Z,3
2022-09-02T01:49:40.945Z,3
2022-09-02T01:52:11.390Z,4
2022-09-02T01:54:41.757Z,4
2022-09-02T01:57:12.177Z,3
2022-09-02T01:59:42.566Z,4
2022-09-02T02:02:13.029Z,4
2022-09-02T02:04:43.353Z,3
2022-09-02T02:07:13.811Z,3
2022-09-02T02:09:44.196Z,3
2022-09-02T02:12:14.654Z,4
2022-09-02T02:14:45.042Z,4
2022-09-02T02:17:15.492Z,3
2022-09-02T02:19:45.902Z,3
2022-09-02T02:22:16.383Z,2
2022-09-02T02:24:46.768Z,3
2022-09-02T02:27:17.204Z,1
2022-09-02T02:29:47.630Z,3
2022-09-02T02:32:18.081Z,4
2022-09-02T02:34:48.507Z,3
2022-09-02T02:37:23.385Z,3
2022-09-02T02:39:49.364Z,3
2022-09-02T02:42:19.790Z,3
2022-09-02T02:44:50.215Z,6
2022-09-02T02:47:20.751Z,5
2022-09-02T02:49:51.080Z,3
2022-09-02T02:52:21.622Z,4
2022-09-02T02:54:51.965Z,4
2022-09-02T02:57:22.419Z,5
2022-09-02T02:59:52.848Z,4
2022-09-02T03:02:23.387Z,3
2022-09-02T03:04:53.718Z,5
2022-09-02T03:07:24.188Z,4
2022-09-02T03:09:54.591Z,2
2022-09-02T03:12:25.054Z,5
2022-09-02T03:14:55.455Z,3
2022-09-02T03:17:25.915Z,5
2022-09-02T03:19:56.356Z,5
2022-09-02T03:22:26.825Z,4
2022-09-02T03:24:57.243Z,2
2022-09-02T03:27:27.715Z,5
2022-09-02T03:29:58.158Z,5
2022-09-02T03:32:30.490Z,4
2022-09-02T03:34:59.050Z,4
2022-09-02T03:37:29.567Z,5
2022-09-02T03:39:59.968Z,4
2022-09-02T03:42:30.448Z,4
2022-09-02T03:45:00.596Z,4
2022-09-02T03:47:31.073Z,4
2022-09-02T03:50:01.522Z,4
2022-09-02T03:52:31.981Z,3
2022-09-02T03:55:02.409Z,4
2022-09-02T03:57:32.892Z,4
2022-09-02T04:00:03.401Z,5
2022-09-02T04:02:33.908Z,4
2022-09-02T04:05:04.260Z,4
2022-09-02T04:07:34.751Z,5
2022-09-02T04:10:05.165Z,4
2022-09-02T04:12:35.654Z,5
2022-09-02T04:15:06.111Z,7
2022-09-02T04:17:36.633Z,5
2022-09-02T04:20:07.067Z,5
2022-09-02T04:22:37.535Z,4
2022-09-02T04:25:07.953Z,5
2022-09-02T04:27:38.522Z,5
2022-09-02T04:30:08.911Z,5
2022-09-02T04:32:40.840Z,5
2022-09-02T04:35:09.848Z,5
2022-09-02T04:37:40.385Z,6
2022-09-02T04:40:10.957Z,4
2022-09-02T04:42:41.319Z,5
2022-09-02T04:45:11.835Z,5
2022-09-02T04:47:42.278Z,5
2022-09-02T04:50:12.743Z,5
2022-09-02T04:52:43.340Z,6
2022-09-02T04:55:13.663Z,6
2022-09-02T04:57:44.169Z,5
2022-09-02T05:00:14.607Z,5
2022-09-02T05:02:45.130Z,4
2022-09-02T05:05:15.579Z,5
2022-09-02T05:07:46.089Z,5
2022-09-02T05:10:16.514Z,5
2022-09-02T05:12:47.012Z,4
2022-09-02T05:15:17.479Z,5
2022-09-02T05:17:47.967Z,6
2022-09-02T05:20:18.430Z,5
2022-09-02T05:22:48.955Z,5
2022-09-02T05:25:19.397Z,5
2022-09-02T05:27:49.896Z,5
2022-09-02T05:30:20.360Z,4
2022-09-02T05:32:50.859Z,6
2022-09-02T05:35:21.419Z,5
2022-09-02T05:37:51.819Z,6
2022-09-02T05:40:22.694Z,6
2022-09-02T05:42:52.775Z,4
2022-09-02T05:45:23.243Z,4
2022-09-02T05:47:53.737Z,5
2022-09-02T05:50:24.286Z,6
2022-09-02T05:52:54.711Z,6
2022-09-02T05:55:25.177Z,5
2022-09-02T05:57:55.630Z,5
2022-09-02T06:00:26.199Z,5
2022-09-02T06:02:56.626Z,4
2022-09-02T06:05:27.060Z,5
2022-09-02T06:07:57.540Z,6
2022-09-02T06:10:28.105Z,5
2022-09-02T06:12:58.448Z,6
2022-09-02T06:15:28.980Z,5
2022-09-02T06:17:59.386Z,6
2022-09-02T06:20:29.908Z,6
2022-09-02T06:23:00.441Z,6
2022-09-02T06:25:30.809Z,7
2022-09-02T06:28:05.179Z,6
2022-09-02T06:30:31.710Z,6
2022-09-02T06:33:02.136Z,6
2022-09-02T06:35:32.612Z,7
2022-09-02T06:38:03.057Z,8
2022-09-02T06:40:33.614Z,6
2022-09-02T06:43:03.960Z,6
2022-09-02T06:45:34.406Z,7
2022-09-02T06:48:05.690Z,7
2022-09-02T06:50:35.342Z,6
2022-09-02T06:53:05.780Z,6
2022-09-02T06:55:35.800Z,7
2022-09-02T06:58:06.189Z,6
2022-09-02T07:00:36.660Z,7
2022-09-02T07:03:07.065Z,7
2022-09-02T07:05:37.514Z,5
2022-09-02T07:08:07.937Z,6
2022-09-02T07:10:38.436Z,7
2022-09-02T07:13:08.783Z,6
2022-09-02T07:15:39.220Z,5
2022-09-02T07:18:09.623Z,6
2022-09-02T07:20:40.064Z,5
2022-09-02T07:23:10.486Z,6
2022-09-02T07:25:40.902Z,6
2022-09-02T07:28:11.293Z,6
2022-09-02T07:30:41.814Z,7
2022-09-02T07:33:12.118Z,5
2022-09-02T07:35:42.628Z,7
2022-09-02T07:38:12.952Z,8
2022-09-02T07:40:43.376Z,6
2022-09-02T07:43:13.762Z,6
2022-09-02T07:45:44.309Z,6
2022-09-02T07:48:14.543Z,6
2022-09-02T07:50:44.915Z,6
2022-09-02T07:53:15.272Z,7
2022-09-02T07:55:45.741Z,5
2022-09-02T07:58:16.263Z,5
2022-09-02T08:00:46.358Z,7
2022-09-02T08:03:16.701Z,7
2022-09-02T08:05:47.206Z,6
2022-09-02T08:08:17.435Z,6
2022-09-02T08:10:47.887Z,5
2022-09-02T08:13:18.195Z,6
2022-09-02T08:15:50.835Z,6
2022-09-02T08:18:22.325Z,4
2022-09-02T08:20:49.260Z,6
2022-09-02T08:23:35.505Z,6
2022-09-02T08:25:50.048Z,6
2022-09-02T08:28:20.381Z,6
2022-09-02T08:30:50.685Z,3
2022-09-02T08:33:21.020Z,7
2022-09-02T08:35:51.400Z,6
2022-09-02T08:38:22.015Z,5
2022-09-02T08:40:52.146Z,7
2022-09-02T08:43:22.430Z,5
2022-09-02T08:45:52.918Z,5
2022-09-02T08:48:23.072Z,4
2022-09-02T08:50:53.394Z,6
2022-09-02T08:53:23.750Z,5
2022-09-02T08:55:53.990Z,5
2022-09-02T08:58:24.472Z,6
2022-09-02T09:00:54.612Z,5
2022-09-02T09:03:24.844Z,5
2022-09-02T09:05:55.244Z,5
2022-09-02T09:08:25.577Z,5
2022-09-02T09:10:55.786Z,5
2022-09-02T09:13:26.012Z,39
2022-09-02T09:15:56.119Z,31
2022-09-02T09:18:26.445Z,20
2022-09-02T09:20:56.771Z,17
2022-09-02T09:23:27.453Z,13
2022-09-02T09:25:57.364Z,7
2022-09-02T09:28:27.644Z,5
2022-09-02T09:30:57.978Z,5
2022-09-02T09:33:28.096Z,5
2022-09-02T09:35:58.373Z,4
2022-09-02T09:38:28.633Z,5
2022-09-02T09:40:58.974Z,4
2022-09-02T09:43:29.099Z,4
2022-09-02T09:45:59.577Z,4
2022-09-02T09:48:29.589Z,5
2022-09-02T09:50:59.857Z,4
2022-09-02T09:53:30.094Z,5
2022-09-02T09:56:00.323Z,4
2022-09-02T09:58:30.529Z,5
2022-09-02T10:01:00.945Z,5
2022-09-02T10:03:32.941Z,4
2022-09-02T10:06:01.201Z,4
2022-09-02T10:08:31.410Z,4
2022-09-02T10:11:01.608Z,4
2022-09-02T10:13:31.808Z,4
2022-09-02T10:16:02.144Z,6
2022-09-02T10:18:32.220Z,5
2022-09-02T10:21:15.135Z,5
2022-09-02T10:23:32.649Z,5
2022-09-02T10:26:02.845Z,3
2022-09-02T10:28:33.024Z,6
2022-09-02T10:31:03.314Z,5
2022-09-02T10:33:33.413Z,5
2022-09-02T10:36:03.634Z,6
2022-09-02T10:38:33.842Z,5
2022-09-02T10:41:04.000Z,4
2022-09-02T10:43:34.172Z,5
2022-09-02T10:46:04.391Z,4
2022-09-02T10:48:34.542Z,4
2022-09-02T10:51:04.783Z,4
2022-09-02T10:53:34.925Z,5
2022-09-02T10:56:05.223Z,5
2022-09-02T10:58:35.283Z,5
2022-09-02T11:01:05.582Z,4
2022-09-02T11:03:35.707Z,4
2022-09-02T11:06:05.866Z,5
2022-09-02T11:08:36.060Z,4
2022-09-02T11:11:06.280Z,5
2022-09-02T11:13:36.399Z,3
2022-09-02T11:16:06.825Z,5
2022-09-02T11:18:36.763Z,6
2022-09-02T11:21:07.038Z,5
2022-09-02T11:23:37.164Z,6
2022-09-02T11:26:07.339Z,7
2022-09-02T11:28:37.497Z,6
2022-09-02T11:31:07.703Z,5
2022-09-02T11:33:37.880Z,5
2022-09-02T11:36:08.072Z,5
2022-09-02T11:38:38.310Z,7
2022-09-02T11:41:37.214Z,4
2022-09-02T11:43:38.582Z,5
2022-09-02T11:46:08.766Z,5
2022-09-02T11:48:38.942Z,6
2022-09-02T11:51:09.176Z,4
2022-09-02T11:53:39.304Z,5
2022-09-02T11:56:09.470Z,5
2022-09-02T11:58:39.626Z,7
2022-09-02T12:01:13.766Z,5
2022-09-02T12:04:06.515Z,6
2022-09-02T12:06:10.356Z,5
2022-09-02T12:08:40.314Z,6
2022-09-02T12:11:10.485Z,6
2022-09-02T12:13:40.728Z,6
2022-09-02T12:16:10.866Z,7
2022-09-02T12:18:40.949Z,5
2022-09-02T12:21:15.954Z,5
2022-09-02T12:23:41.312Z,5
2022-09-02T12:26:15.768Z,5
2022-09-02T12:28:41.615Z,6
2022-09-02T12:31:11.843Z,4
2022-09-02T12:33:41.937Z,6
2022-09-02T12:36:12.114Z,6
2022-09-02T12:38:42.265Z,5
2022-09-02T12:41:12.525Z,5
2022-09-02T12:43:42.581Z,6
2022-09-02T12:46:12.776Z,5
2022-09-02T12:48:42.887Z,7
2022-09-02T12:51:13.099Z,7
2022-09-02T12:53:43.254Z,6
2022-09-02T12:56:13.450Z,6
2022-09-02T12:58:43.468Z,6
2022-09-02T13:01:13.717Z,6
2022-09-02T13:03:43.766Z,6
2022-09-02T13:06:13.931Z,7
2022-09-02T13:08:44.111Z,7
2022-09-02T13:11:14.249Z,8
2022-09-02T13:13:44.489Z,6
2022-09-02T13:16:18.385Z,7
2022-09-02T13:18:44.694Z,8
2022-09-02T13:21:14.951Z,5
2022-09-02T13:23:45.012Z,5
2022-09-02T13:26:27.463Z,6
2022-09-02T13:28:45.288Z,6
2022-09-02T13:31:15.532Z,6
2022-09-02T13:33:45.547Z,7
2022-09-02T13:36:15.727Z,7
2022-09-02T13:38:45.936Z,11
2022-09-02T13:41:16.074Z,9
2022-09-02T13:43:46.299Z,8
2022-09-02T13:46:16.446Z,7
2022-09-02T13:48:46.519Z,7
2022-09-02T13:51:16.797Z,6
2022-09-02T13:54:05.547Z,7
2022-09-02T13:56:17.019Z,7
2022-09-02T13:58:47.137Z,6
2022-09-02T14:01:17.514Z,6
2022-09-02T14:03:47.528Z,7
2022-09-02T14:06:17.634Z,6
2022-09-02T14:08:47.789Z,6
2022-09-02T14:11:17.946Z,7
2022-09-02T14:13:48.186Z,9
2022-09-02T14:16:18.330Z,8
2022-09-02T14:18:48.389Z,8
2022-09-02T14:21:18.622Z,8
2022-09-02T14:23:48.714Z,9
2022-09-02T14:26:18.982Z,8
2022-09-02T14:28:49.011Z,6
2022-09-02T14:31:19.255Z,8
2022-09-02T14:33:49.315Z,6
2022-09-02T14:36:19.571Z,7
2022-09-02T14:38:49.645Z,6
2022-09-02T14:41:19.799Z,7
2022-09-02T14:43:49.920Z,9
2022-09-02T14:46:20.188Z,9
2022-09-02T14:48:50.215Z,7
2022-09-02T14:51:20.377Z,7
2022-09-02T14:53:50.531Z,7
2022-09-02T14:56:20.677Z,6
2022-09-02T14:58:50.824Z,7
2022-09-02T15:01:21.154Z,7
2022-09-02T15:03:51.145Z,8
2022-09-02T15:06:21.310Z,8
2022-09-02T15:08:51.470Z,8
2022-09-02T15:11:21.627Z,8
2022-09-02T15:13:51.778Z,8
2022-09-02T15:16:21.952Z,8
2022-09-02T15:18:52.104Z,9
2022-09-02T15:21:22.291Z,8
2022-09-02T15:23:52.443Z,6
2022-09-02T15:26:22.688Z,8
2022-09-02T15:28:52.732Z,7
2022-09-02T15:31:23.028Z,8
2022-09-02T15:33:53.032Z,8
2022-09-02T15:36:23.263Z,9
2022-09-02T15:38:53.409Z,8
2022-09-02T15:41:23.976Z,9
2022-09-02T15:43:53.662Z,9
2022-09-02T15:46:23.926Z,11
2022-09-02T15:48:56.755Z,5
2022-09-02T15:51:24.294Z,7
2022-09-02T15:53:54.353Z,6
2022-09-02T15:56:24.526Z,7
2022-09-02T15:58:54.640Z,8
2022-09-02T16:01:25.284Z,7
2022-09-02T16:03:54.965Z,7
2022-09-02T16:06:25.135Z,5
2022-09-02T16:08:55.302Z,6
2022-09-02T16:11:25.558Z,6
2022-09-02T16:13:55.607Z,6
2022-09-02T16:16:25.810Z,6
2022-09-02T16:18:55.921Z,7
2022-09-02T16:21:26.106Z,7
2022-09-02T16:23:56.296Z,7
2022-09-02T16:26:26.436Z,5
2022-09-02T16:28:56.558Z,7
2022-09-02T16:31:26.850Z,9
2022-09-02T16:33:56.898Z,7
2022-09-02T16:36:29.140Z,6
2022-09-02T16:38:57.262Z,7
2022-09-02T16:41:27.515Z,6
2022-09-02T16:43:57.583Z,8
2022-09-02T16:46:27.843Z,6
2022-09-02T16:48:57.926Z,8
2022-09-02T16:51:28.122Z,7
2022-09-02T16:53:58.297Z,6
2022-09-02T16:56:28.490Z,6
2022-09-02T16:58:58.767Z,8
2022-09-02T17:01:32.263Z,7
2022-09-02T17:03:59.109Z,7
2022-09-02T17:06:29.325Z,8
2022-09-02T17:08:59.578Z,6
2022-09-02T17:11:29.569Z,6
2022-09-02T17:13:59.718Z,6
2022-09-02T17:16:29.988Z,7
2022-09-02T17:19:00.088Z,6
2022-09-02T17:21:30.287Z,7
2022-09-02T17:24:00.492Z,6
2022-09-02T17:26:30.696Z,5
2022-09-02T17:29:00.816Z,7
2022-09-02T17:31:31.034Z,8
2022-09-02T17:34:01.228Z,10
2022-09-02T17:36:31.458Z,14
2022-09-02T17:39:01.769Z,47
2022-09-02T17:41:32.245Z,88
2022-09-02T17:44:02.570Z,25
2022-09-02T17:46:32.812Z,6
2022-09-02T17:49:16.201Z,7
2022-09-02T17:51:33.320Z,7
2022-09-02T17:54:03.430Z,6
2022-09-02T17:56:33.625Z,7
2022-09-02T17:59:03.819Z,6
2022-09-02T18:01:34.201Z,6
2022-09-02T18:04:04.270Z,7
2022-09-02T18:06:34.482Z,5
2022-09-02T18:09:04.711Z,8
2022-09-02T18:11:34.904Z,7
2022-09-02T18:14:05.225Z,7
2022-09-02T18:16:37.044Z,6
2022-09-02T18:19:05.552Z,6
2022-09-02T18:21:35.802Z,6
2022-09-02T18:24:06.042Z,6
2022-09-02T18:26:36.271Z,6
2022-09-02T18:29:06.457Z,7
2022-09-02T18:31:36.710Z,7
2022-09-02T18:34:06.921Z,7
2022-09-02T18:36:37.170Z,5
2022-09-02T18:39:07.398Z,6
2022-09-02T18:41:37.617Z,7
2022-09-02T18:44:09.345Z,8
2022-09-02T18:46:38.083Z,6
2022-09-02T18:49:08.294Z,7
2022-09-02T18:51:38.660Z,7
2022-09-02T18:54:08.801Z,8
2022-09-02T18:56:39.031Z,7
2022-09-02T18:59:09.237Z,6
2022-09-02T19:01:39.644Z,8
2022-09-02T19:04:09.698Z,7
2022-09-02T19:06:39.986Z,7
2022-09-02T19:09:10.231Z,6
2022-09-02T19:11:40.445Z,6
2022-09-02T19:14:10.649Z,7
2022-09-02T19:16:40.984Z,6
2022-09-02T19:19:11.159Z,7
2022-09-02T19:21:41.417Z,7
2022-09-02T19:24:11.781Z,7
2022-09-02T19:26:41.920Z,7
2022-09-02T19:29:12.160Z,6
2022-09-02T19:31:42.494Z,7
2022-09-02T19:34:12.674Z,6
2022-09-02T19:36:42.947Z,7
2022-09-02T19:39:13.324Z,8
2022-09-02T19:41:43.521Z,7
2022-09-02T19:44:13.717Z,8
2022-09-02T19:47:20.956Z,4
2022-09-02T19:49:14.361Z,7
2022-09-02T19:51:44.624Z,7
2022-09-02T19:54:14.968Z,8
2022-09-02T19:56:45.165Z,8
2022-09-02T19:59:15.318Z,8
2022-09-02T20:01:45.656Z,6
2022-09-02T20:04:15.941Z,9
2022-09-02T20:06:46.150Z,8
2022-09-02T20:09:17.102Z,8
2022-09-02T20:11:46.723Z,7
2022-09-02T20:14:16.991Z,9
2022-09-02T20:16:47.479Z,7
2022-09-02T20:19:17.582Z,6
2022-09-02T20:21:47.882Z,7
2022-09-02T20:24:18.183Z,6
2022-09-02T20:26:48.471Z,7
2022-09-02T20:29:18.743Z,6
2022-09-02T20:31:49.135Z,8
2022-09-02T20:34:19.308Z,6
2022-09-02T20:36:49.711Z,7
2022-09-02T20:39:19.934Z,6
2022-09-02T20:41:50.191Z,5
2022-09-02T20:44:20.450Z,6
2022-09-02T20:46:50.832Z,5
2022-09-02T20:49:21.034Z,6
2022-09-02T20:51:51.345Z,7
2022-09-02T20:54:21.653Z,6
2022-09-02T20:56:51.930Z,7
2022-09-02T20:59:22.199Z,6
2022-09-02T21:01:52.652Z,7
2022-09-02T21:04:22.794Z,4
2022-09-02T21:06:53.113Z,6
2022-09-02T21:09:23.481Z,6
2022-09-02T21:11:53.778Z,6
2022-09-02T21:14:23.947Z,6
2022-09-02T21:16:54.267Z,4
2022-09-02T21:19:24.544Z,6
2022-09-02T21:21:54.857Z,6
2022-09-02T21:24:25.141Z,6
2022-09-02T21:26:56.732Z,6
2022-09-02T21:29:25.717Z,7
2022-09-02T21:31:56.077Z,7
2022-09-02T21:34:26.398Z,9
2022-09-02T21:36:56.658Z,9
2022-09-02T21:39:27.010Z,15
2022-09-02T21:41:57.327Z,16
2022-09-02T21:44:27.631Z,14
2022-09-02T21:46:58.143Z,19
2022-09-02T21:49:28.374Z,29
2022-09-02T21:51:58.822Z,41
2022-09-02T21:54:29.277Z,43
2022-09-02T21:56:59.452Z,14
2022-09-02T21:59:29.864Z,43
2022-09-02T22:01:59.992Z,40
2022-09-02T22:04:30.437Z,44
2022-09-02T22:07:00.828Z,9
2022-09-02T22:09:31.146Z,7
2022-09-02T22:12:01.564Z,6
2022-09-02T22:14:31.791Z,5
2022-09-02T22:17:02.092Z,6
2022-09-02T22:19:32.441Z,5
2022-09-02T22:22:02.703Z,5
2022-09-02T22:24:33.038Z,5
2022-09-02T22:27:03.400Z,6
2022-09-02T22:29:33.626Z,5
2022-09-02T22:32:04.058Z,5
2022-09-02T22:34:34.295Z,5
2022-09-02T22:37:04.717Z,3
2022-09-02T22:39:35.044Z,5
2022-09-02T22:42:05.320Z,4
2022-09-02T22:44:35.633Z,5
2022-09-02T22:47:05.982Z,5
2022-09-02T22:49:36.299Z,4
2022-09-02T22:52:06.762Z,5
2022-09-02T22:54:36.999Z,4
2022-09-02T22:57:07.420Z,4
2022-09-02T22:59:37.731Z,4
2022-09-02T23:02:08.126Z,3
2022-09-02T23:04:38.279Z,4
2022-09-02T23:07:08.622Z,5
2022-09-02T23:09:38.993Z,4
2022-09-02T23:12:09.367Z,4
2022-09-02T23:14:39.575Z,4
2022-09-02T23:17:09.930Z,4
2022-09-02T23:19:40.346Z,4
2022-09-02T23:22:10.598Z,5
2022-09-02T23:24:40.906Z,2
2022-09-02T23:27:11.211Z,2
2022-09-02T23:29:41.543Z,2
2022-09-02T23:32:11.969Z,3
2022-09-02T23:34:42.216Z,2
2022-09-02T23:37:12.609Z,2
2022-09-02T23:39:42.916Z,3
2022-09-02T23:42:13.254Z,3
2022-09-02T23:44:43.514Z,4
2022-09-02T23:47:13.899Z,3
2022-09-02T23:49:44.192Z,4
2022-09-02T23:52:14.540Z,3
2022-09-02T23:54:50.693Z,3
2022-09-02T23:57:15.214Z,4
2022-09-02T23:59:45.542Z,4
